Time;durP1;ratioP1;P1;durP2;ratioP2;P2;SDS_P1;SDS_P2;PMS_P1;PMS_P2;Temp;Humidity;BMP_temperature;BMP_pressure;BME280_temperature;BME280_humidity;BME280_pressure;Samples;Min_cycle;Max_cycle;Signal;HPM_P1;HPM_P2
2022/05/28 00:00:17;;;;;;;;;;;13.80;90.10;;;11.64;80.12;101050.84;6121631;23;19974;-77
2022/05/28 00:02:44;;;;;;;;;;;13.80;90.20;;;11.65;80.44;101042.50;6122518;23;19921;-76
2022/05/28 00:05:11;;;;;;;;;;;13.90;90.20;;;11.69;79.97;101048.41;6122400;23;19943;-77
2022/05/28 00:07:39;;;;;;;;;;;13.90;90.00;;;11.67;80.11;101040.44;6119787;23;19924;-77
2022/05/28 00:10:07;;;;;;;;;;;13.90;90.00;;;11.66;80.07;101038.72;6122171;23;19927;-77
2022/05/28 00:12:34;;;;;;;;;;;13.90;90.10;;;11.65;80.02;101044.34;6122093;23;19944;-77
2022/05/28 00:15:01;;;;;;;;;;;13.90;90.10;;;11.66;80.15;101036.00;6121897;23;20007;-76
2022/05/28 00:17:29;;;;;;;;;;;13.90;90.20;;;11.67;80.71;101034.13;6122050;23;20031;-77
2022/05/28 00:19:56;;;;;;;;;;;13.90;90.30;;;11.66;80.42;101030.56;6121410;23;20003;-77
2022/05/28 00:22:23;;;;;;;;;;;13.90;90.30;;;11.65;80.23;101031.59;6122322;23;19935;-77
2022/05/28 00:24:50;;;;;;;;;;;13.90;90.20;;;11.68;80.58;101033.09;6121076;23;20447;-77
2022/05/28 00:27:17;;;;;;;;;;;13.90;90.30;;;11.66;80.86;101021.53;6122075;23;19960;-77
2022/05/28 00:29:44;;;;;;;;;;;13.90;90.30;;;11.63;80.62;101022.75;6095142;23;19921;-77
2022/05/28 00:32:11;;;;;;;;;;;13.90;90.40;;;11.61;81.05;101013.88;6122359;23;20004;-77
2022/05/28 00:34:40;;;;;;;;;;;13.80;90.50;;;11.59;80.83;101015.94;6122222;23;19948;-77
2022/05/28 00:37:08;;;;;;;;;;;13.80;90.60;;;11.55;81.67;101020.88;6122407;23;19925;-77
2022/05/28 00:39:35;;;;;;;;;;;13.80;90.90;;;11.53;81.51;101008.47;6120769;23;19925;-77
2022/05/28 00:42:02;;;;;;;;;;;13.70;91.00;;;11.54;81.51;101026.53;6122542;23;19920;-77
2022/05/28 00:44:29;;;;;;;;;;;13.70;91.10;;;11.54;81.44;101018.38;6121618;23;20360;-77
2022/05/28 00:46:59;;;;;;;;;;;13.70;91.00;;;11.50;81.68;101019.75;6122445;23;20604;-77
2022/05/28 00:49:29;;;;;;;;;;;13.70;91.20;;;11.50;81.73;101019.75;6121482;23;19917;-77
2022/05/28 00:52:01;;;;;;;;;;;13.70;91.30;;;11.46;81.70;101018.38;6123692;23;20332;-77
2022/05/28 00:54:31;;;;;;;;;;;13.60;91.20;;;11.40;82.41;101011.75;6124004;23;19927;-76
2022/05/28 00:56:58;;;;;;;;;;;13.60;91.90;;;11.40;82.35;101019.09;6123590;23;20344;-77
2022/05/28 00:59:25;;;;;;;;;;;13.60;91.90;;;11.41;82.63;101015.38;6122713;23;20375;-77
2022/05/28 01:01:56;;;;;;;;;;;13.60;92.00;;;11.37;83.08;101008.56;6123420;23;19925;-77
2022/05/28 01:04:28;;;;;;;;;;;13.50;92.30;;;11.35;83.92;101011.47;6123777;23;20363;-77
2022/05/28 01:07:04;;;;;;;;;;;13.50;92.90;;;11.34;84.51;101007.03;6123697;23;20264;-77
2022/05/28 01:09:37;;;;;;;;;;;13.50;93.20;;;11.31;84.07;101010.97;6122934;23;19924;-77
2022/05/28 01:12:10;;;;;;;;;;;13.50;93.20;;;11.32;84.63;101007.22;6124036;23;19956;-77
2022/05/28 01:14:42;;;;;;;;;;;13.50;93.30;;;11.32;84.84;101011.81;6123679;23;19943;-77
2022/05/28 01:17:13;;;;;;;;;;;13.50;93.40;;;11.32;85.08;101001.75;6123459;23;19995;-77
2022/05/28 01:19:49;;;;;;;;;;;13.50;93.70;;;11.33;84.48;101005.34;6122729;23;19924;-77
2022/05/28 01:22:21;;;;;;;;;;;13.50;93.50;;;11.35;84.30;101003.28;6123970;23;19917;-77
2022/05/28 01:24:53;;;;;;;;;;;13.50;93.40;;;11.38;84.31;101002.09;6123731;23;19921;-77
2022/05/28 01:27:25;;;;;;;;;;;13.60;93.30;;;11.35;85.58;101000.56;6123765;23;20316;-77
2022/05/28 01:29:55;;;;;;;;;;;13.50;93.60;;;11.40;85.46;100986.41;6122549;23;19916;-77
2022/05/28 01:32:26;;;;;;;;;;;13.60;93.70;;;11.39;84.48;100995.63;6123088;23;20003;-77
2022/05/28 01:34:54;;;;;;;;;;;13.60;93.20;;;11.42;84.29;100989.78;6123328;23;19927;-77
2022/05/28 01:37:22;;;;;;;;;;;13.60;93.20;;;11.40;84.25;100984.50;6123010;23;19921;-77
2022/05/28 01:39:50;;;;;;;;;;;13.60;93.10;;;11.38;84.58;100983.84;6122661;23;19927;-77
2022/05/28 01:42:18;;;;;;;;;;;13.60;93.20;;;11.35;83.99;100990.50;6123378;23;20360;-77
2022/05/28 01:44:49;;;;;;;;;;;13.50;93.20;;;11.36;84.11;100991.34;6122996;23;20007;-77
2022/05/28 01:47:16;;;;;;;;;;;13.50;93.30;;;11.33;84.04;100991.72;6123464;23;19925;-77
2022/05/28 01:49:44;;;;;;;;;;;13.50;93.20;;;11.34;83.81;100988.78;6120752;23;19921;-77
2022/05/28 01:52:12;;;;;;;;;;;13.50;93.10;;;11.35;83.84;100990.50;6123582;23;19947;-77
2022/05/28 01:54:43;;;;;;;;;;;13.60;93.00;;;11.37;83.86;100993.06;6123214;23;19928;-76
2022/05/28 01:57:11;;;;;;;;;;;13.60;93.00;;;11.34;83.67;100988.78;6123305;23;19921;-77
2022/05/28 01:59:38;;;;;;;;;;;13.50;92.80;;;11.35;83.84;100993.25;6122134;23;19927;-77
2022/05/28 02:02:08;;;;;;;;;;;13.60;93.00;;;11.35;83.69;100990.50;6123123;23;20013;-77
2022/05/28 02:04:37;;;;;;;;;;;13.60;93.00;;;11.32;83.76;100988.13;6122987;23;19931;-77
2022/05/28 02:07:04;;;;;;;;;;;13.50;92.90;;;11.31;84.15;100983.72;6123266;23;19921;-76
2022/05/28 02:09:34;;;;;;;;;;;13.50;93.10;;;11.30;84.16;100981.16;6121267;23;20003;-77
2022/05/28 02:12:12;;;;;;;;;;;13.50;93.10;;;11.26;84.44;100980.69;6123134;23;19948;-77
2022/05/28 02:14:50;;;;;;;;;;;13.50;93.10;;;11.27;84.01;100982.38;6123094;23;19920;-77
2022/05/28 02:17:21;;;;;;;;;;;13.50;93.20;;;11.26;84.32;100983.41;6123191;23;20423;-77
2022/05/28 02:19:58;;;;;;;;;;;13.40;93.20;;;11.21;84.63;100982.22;6122485;23;20016;-77
2022/05/28 02:22:33;;;;;;;;;;;13.40;93.30;;;11.21;84.72;100980.34;6123368;23;19952;-77
2022/05/28 02:25:07;;;;;;;;;;;13.30;93.50;;;11.19;84.82;100976.94;6122503;23;19956;-77
2022/05/28 02:27:35;;;;;;;;;;;13.40;93.60;;;11.18;84.69;100982.59;6121875;23;19925;-77
2022/05/28 02:30:03;;;;;;;;;;;13.30;93.60;;;11.18;84.74;100971.72;6122839;23;19920;-77
2022/05/28 02:32:31;;;;;;;;;;;13.30;93.60;;;11.18;84.58;100978.00;6122583;23;20521;-77
2022/05/28 02:34:59;;;;;;;;;;;13.30;93.70;;;11.20;84.47;100972.38;6123151;23;20007;-77
2022/05/28 02:37:28;;;;;;;;;;;13.40;93.70;;;11.17;84.66;100962.66;6123081;23;19920;-77
2022/05/28 02:39:57;;;;;;;;;;;13.30;93.70;;;11.18;84.78;100967.09;6122141;23;19996;-77
2022/05/28 02:42:24;;;;;;;;;;;13.30;93.80;;;11.14;85.06;100955.72;6121244;23;20332;-77
2022/05/28 02:44:51;;;;;;;;;;;13.30;93.70;;;11.11;85.61;100961.50;6121770;23;19956;-77
2022/05/28 02:47:18;;;;;;;;;;;13.30;94.00;;;11.08;85.61;100961.00;6122780;23;19927;-77
2022/05/28 02:49:47;;;;;;;;;;;13.20;94.20;;;11.04;85.99;100962.38;6121632;23;20359;-77
2022/05/28 02:52:14;;;;;;;;;;;13.20;94.30;;;11.03;86.48;100974.31;6096877;23;19920;-77
2022/05/28 02:54:41;;;;;;;;;;;13.20;94.60;;;11.01;86.39;100966.31;6122880;23;19932;-76
2022/05/28 02:57:08;;;;;;;;;;;13.20;94.60;;;10.99;86.83;100967.53;6122419;23;19944;-77
2022/05/28 02:59:35;;;;;;;;;;;13.10;95.00;;;10.95;87.15;100959.69;6144932;23;20262;-76
2022/05/28 03:02:03;;;;;;;;;;;13.10;95.00;;;10.96;86.91;100964.09;6151357;23;20335;-76
2022/05/28 03:04:30;;;;;;;;;;;13.10;95.10;;;10.95;87.42;100967.88;6151454;23;19921;-76
2022/05/28 03:06:59;;;;;;;;;;;13.10;95.20;;;10.96;87.16;100969.56;6151948;23;19923;-77
2022/05/28 03:09:26;;;;;;;;;;;13.10;95.10;;;10.95;87.53;100975.19;6151201;23;19948;-74
2022/05/28 03:11:53;;;;;;;;;;;13.10;95.30;;;10.93;88.09;100972.66;6151645;23;19916;-74
2022/05/28 03:14:20;;;;;;;;;;;13.10;95.50;;;10.98;88.33;100976.72;6150671;23;20009;-74
2022/05/28 03:16:47;;;;;;;;;;;13.20;95.60;;;10.99;88.89;100970.25;6151807;23;19944;-74
2022/05/28 03:19:14;;;;;;;;;;;13.20;95.70;;;10.99;88.63;100962.94;6150928;23;19927;-74
2022/05/28 03:21:41;;;;;;;;;;;13.20;95.70;;;11.01;89.91;100968.22;6151877;23;20339;-74
2022/05/28 03:24:10;;;;;;;;;;;13.30;96.10;;;11.01;90.07;100976.38;6151595;23;19920;-74
2022/05/28 03:26:37;;;;;;;;;;;13.30;96.20;;;11.02;89.28;100972.59;6150842;23;19952;-74
2022/05/28 03:29:05;;;;;;;;;;;13.30;96.00;;;11.03;89.65;100977.88;6150360;23;19920;-74
2022/05/28 03:31:32;;;;;;;;;;;13.30;96.10;;;11.05;89.62;100977.72;6151696;23;20359;-74
2022/05/28 03:33:59;;;;;;;;;;;13.30;96.30;;;11.04;89.68;100976.00;6151101;23;19921;-74
2022/05/28 03:36:27;;;;;;;;;;;13.30;96.30;;;11.02;89.61;100973.44;6151686;23;19930;-74
2022/05/28 03:38:54;;;;;;;;;;;13.30;96.20;;;11.04;89.58;100981.44;6151066;23;19973;-73
2022/05/28 03:41:22;;;;;;;;;;;13.30;96.20;;;11.05;89.21;100985.88;6151035;23;20244;-74
2022/05/28 03:43:50;;;;;;;;;;;13.30;96.20;;;11.04;89.89;100981.44;6151957;23;19920;-74
2022/05/28 03:46:26;;;;;;;;;;;13.30;96.40;;;11.04;89.99;100981.44;6151806;23;20059;-74
2022/05/28 03:48:56;;;;;;;;;;;13.30;96.40;;;11.04;89.90;100986.91;6150400;23;20256;-74
2022/05/28 03:51:23;;;;;;;;;;;13.30;96.40;;;10.99;90.27;100973.81;6151611;23;19917;-74
2022/05/28 03:53:50;;;;;;;;;;;13.20;96.50;;;10.95;90.85;100976.03;6150963;23;19920;-74
2022/05/28 03:56:17;;;;;;;;;;;13.20;97.10;;;10.94;90.94;100973.50;6151393;23;19920;-73
2022/05/28 03:58:47;;;;;;;;;;;13.20;97.20;;;10.93;91.43;100974.53;6150418;23;19951;-74
2022/05/28 04:01:15;;;;;;;;;;;13.20;97.20;;;10.94;91.41;100971.59;6151614;23;19974;-74
2022/05/28 04:03:42;;;;;;;;;;;13.20;97.20;;;10.95;91.61;100978.78;6151827;23;19920;-77
2022/05/28 04:06:09;;;;;;;;;;;13.20;97.30;;;10.92;92.73;100984.56;6151227;23;19964;-75
2022/05/28 04:08:36;;;;;;;;;;;13.20;98.00;;;10.92;92.95;100976.38;6124033;23;20244;-72
2022/05/28 04:11:04;;;;;;;;;;;13.20;98.00;;;10.95;93.61;100967.88;6151562;23;19967;-72
2022/05/28 04:13:31;;;;;;;;;;;13.20;97.80;;;10.99;94.42;100986.59;6152110;23;19921;-72
2022/05/28 04:15:59;;;;;;;;;;;13.30;98.20;;;11.02;95.47;100983.50;6149176;23;19944;-72
2022/05/28 04:18:26;;;;;;;;;;;13.40;98.40;;;11.06;96.26;100987.56;6150001;23;19925;-72
2022/05/28 04:20:53;;;;;;;;;;;13.50;98.40;;;11.11;96.16;100985.19;6151829;23;19943;-72
2022/05/28 04:23:20;;;;;;;;;;;13.60;98.30;;;11.15;96.32;100990.06;6151772;23;19927;-72
2022/05/28 04:25:47;;;;;;;;;;;13.60;98.30;;;11.19;97.11;100990.56;6153149;23;20003;-71
2022/05/28 04:28:14;;;;;;;;;;;13.70;99.00;;;11.24;97.56;100988.19;6151919;23;19920;-71
2022/05/28 04:30:42;;;;;;;;;;;13.70;99.00;;;11.27;97.68;100993.28;6153673;23;19927;-72
2022/05/28 04:33:10;;;;;;;;;;;13.70;99.20;;;11.31;97.35;100989.19;6153080;23;19995;-72
2022/05/28 04:35:37;;;;;;;;;;;13.70;99.00;;;11.34;97.15;100994.25;6153083;23;19925;-72
2022/05/28 04:38:04;;;;;;;;;;;13.80;99.00;;;11.40;95.99;100997.31;6152047;23;19916;-72
2022/05/28 04:40:31;;;;;;;;;;;13.90;98.50;;;11.43;97.23;100989.63;6153511;23;20639;-72
2022/05/28 04:42:58;;;;;;;;;;;13.90;98.80;;;11.47;97.25;100998.28;6153691;23;19944;-72
2022/05/28 04:45:25;;;;;;;;;;;13.90;98.90;;;11.51;97.31;101002.34;6153373;23;20251;-71
2022/05/28 04:47:52;;;;;;;;;;;14.00;99.00;;;11.54;97.32;100993.81;6152940;23;19927;-71
2022/05/28 04:50:21;;;;;;;;;;;14.00;98.90;;;11.59;98.35;100996.00;6152532;23;19916;-72
2022/05/28 04:52:48;;;;;;;;;;;14.10;99.60;;;11.63;98.36;100995.47;6153751;23;19948;-72
2022/05/28 04:55:15;;;;;;;;;;;14.20;99.80;;;11.70;98.38;101004.63;6153696;23;19921;-72
2022/05/28 04:57:42;;;;;;;;;;;14.30;99.70;;;11.78;99.62;100997.41;6152291;23;19920;-71
2022/05/28 05:00:12;;;;;;;;;;;14.40;99.90;;;11.86;99.82;100997.34;6152939;23;20274;-72
2022/05/28 05:02:39;;;;;;;;;;;14.50;99.80;;;11.93;99.15;101003.81;6153103;23;19951;-72
2022/05/28 05:05:07;;;;;;;;;;;14.60;99.20;;;12.01;98.29;101001.03;6152697;23;19966;-72
2022/05/28 05:07:36;;;;;;;;;;;14.80;98.80;;;12.08;98.91;101004.72;6153102;23;20015;-72
2022/05/28 05:10:04;;;;;;;;;;;14.90;98.80;;;12.15;97.45;101003.97;6153042;23;19920;-72
2022/05/28 05:12:31;;;;;;;;;;;15.00;98.10;;;12.20;97.20;100998.84;6153533;23;19927;-72
2022/05/28 05:14:58;;;;;;;;;;;15.00;97.50;;;12.26;97.66;101009.00;6152924;23;19920;-72
2022/05/28 05:17:25;;;;;;;;;;;15.10;97.80;;;12.32;97.47;101005.56;6152737;23;19927;-72
2022/05/28 05:19:53;;;;;;;;;;;15.10;97.70;;;12.37;96.35;101005.00;6152108;23;19920;-72
2022/05/28 05:22:20;;;;;;;;;;;15.20;97.40;;;12.41;95.43;101007.16;6152852;23;20710;-72
2022/05/28 05:24:48;;;;;;;;;;;15.20;96.90;;;12.47;96.65;101017.38;6152267;23;19917;-72
2022/05/28 05:27:15;;;;;;;;;;;15.30;97.50;;;12.53;95.41;101015.78;6153404;23;20328;-72
2022/05/28 05:29:42;;;;;;;;;;;15.40;96.70;;;12.59;95.53;101014.19;6152427;23;19921;-72
2022/05/28 05:32:09;;;;;;;;;;;15.50;96.80;;;12.65;96.13;101019.75;6153301;23;19971;-72
2022/05/28 05:34:37;;;;;;;;;;;15.50;96.90;;;12.69;95.63;101017.50;6152712;23;19924;-73
2022/05/28 05:37:05;;;;;;;;;;;15.60;96.90;;;12.75;94.81;101014.00;6151919;23;19917;-73
2022/05/28 05:39:32;;;;;;;;;;;15.60;96.50;;;12.80;93.96;101025.22;6152139;23;19943;-72
2022/05/28 05:42:00;;;;;;;;;;;15.70;96.10;;;12.82;93.37;101025.06;6153009;23;20304;-72
2022/05/28 05:44:27;;;;;;;;;;;15.70;95.90;;;12.84;92.43;101029.28;6152519;23;19923;-73
2022/05/28 05:46:55;;;;;;;;;;;15.70;95.60;;;12.85;90.93;101025.53;6152803;23;19920;-74
2022/05/28 05:49:22;;;;;;;;;;;15.60;94.80;;;12.89;91.07;101026.84;6151743;23;19927;-73
2022/05/28 05:51:50;;;;;;;;;;;15.60;95.30;;;12.90;91.18;101025.81;6152543;23;19926;-73
2022/05/28 05:54:19;;;;;;;;;;;15.50;95.50;;;12.93;91.29;101021.88;6152325;23;19991;-73
2022/05/28 05:56:46;;;;;;;;;;;15.50;95.70;;;12.95;90.05;101029.88;6152254;23;19921;-73
2022/05/28 05:59:14;;;;;;;;;;;15.50;95.50;;;12.95;89.59;101032.59;6151494;23;20324;-73
2022/05/28 06:01:41;;;;;;;;;;;15.50;95.30;;;12.96;89.56;101031.56;6153051;23;19975;-72
2022/05/28 06:04:08;;;;;;;;;;;15.50;95.30;;;12.98;89.61;101035.78;6153342;23;20303;-72
2022/05/28 06:06:36;;;;;;;;;;;15.60;95.30;;;13.02;89.89;101028.06;6152579;23;19931;-72
2022/05/28 06:09:03;;;;;;;;;;;15.80;95.40;;;13.09;90.64;101024.38;6151657;23;20007;-72
2022/05/28 06:11:30;;;;;;;;;;;16.40;95.90;;;13.21;90.79;101029.38;6152808;23;19954;-72
2022/05/28 06:13:57;;;;;;;;;;;17.40;93.40;;;13.39;91.81;101029.03;6152906;23;19927;-72
2022/05/28 06:16:25;;;;;;;;;;;18.10;91.00;;;13.58;89.40;101025.69;6152922;23;19927;-72
2022/05/28 06:18:52;;;;;;;;;;;18.80;88.30;;;13.79;88.93;101026.78;6151821;23;19947;-72
2022/05/28 06:21:19;;;;;;;;;;;19.20;86.50;;;14.04;87.49;101030.84;6151735;23;19959;-73
2022/05/28 06:23:46;;;;;;;;;;;19.50;86.30;;;14.30;86.62;101029.41;6152375;23;19955;-73
2022/05/28 06:26:13;;;;;;;;;;;19.70;84.80;;;14.54;83.86;101030.03;6151888;23;20346;-72
2022/05/28 06:28:41;;;;;;;;;;;19.80;82.50;;;14.79;81.85;101027.72;6151537;23;20299;-72
2022/05/28 06:31:11;;;;;;;;;;;20.00;82.10;;;14.98;80.78;101026.16;6152623;23;19930;-72
2022/05/28 06:33:39;;;;;;;;;;;20.10;80.90;;;15.20;80.16;101035.16;6152362;23;19916;-72
2022/05/28 06:36:09;;;;;;;;;;;20.20;80.60;;;15.36;76.97;101029.31;6152293;23;19920;-73
2022/05/28 06:38:36;;;;;;;;;;;20.20;79.00;;;15.48;74.54;101026.88;6151489;23;19916;-72
2022/05/28 06:41:04;;;;;;;;;;;20.20;77.00;;;15.56;72.99;101034.06;6152347;23;19939;-72
2022/05/28 06:43:31;;;;;;;;;;;20.10;77.30;;;15.59;72.13;101031.75;6152598;23;19942;-72
2022/05/28 06:46:01;;;;;;;;;;;20.00;76.70;;;15.63;71.77;101029.44;6152321;23;19925;-72
2022/05/28 06:48:28;;;;;;;;;;;19.90;76.80;;;15.64;71.73;101026.50;6151414;23;19920;-73
2022/05/28 06:51:02;;;;;;;;;;;19.70;77.80;;;15.64;70.68;101029.22;6151323;23;19920;-72
2022/05/28 06:53:30;;;;;;;;;;;19.50;76.90;;;15.62;70.21;101038.72;6152483;23;19925;-72
2022/05/28 06:55:57;;;;;;;;;;;19.40;76.60;;;15.61;70.90;101037.91;6152039;23;19926;-72
2022/05/28 06:58:24;;;;;;;;;;;19.10;78.60;;;15.62;70.49;101039.56;6151178;23;19955;-73
2022/05/28 07:00:51;;;;;;;;;;;19.10;78.90;;;15.62;67.06;101039.56;6151551;23;19939;-73
2022/05/28 07:03:20;;;;;;;;;;;18.90;75.90;;;15.55;68.38;101044.19;6152266;23;19921;-73
2022/05/28 07:05:47;;;;;;;;;;;18.70;77.70;;;15.53;69.60;101038.06;6151848;23;19979;-72
2022/05/28 07:08:15;;;;;;;;;;;18.60;79.20;;;15.53;69.62;101039.94;6151164;23;20003;-72
2022/05/28 07:10:45;;;;;;;;;;;18.50;80.00;;;15.56;71.45;101039.56;6152296;23;19979;-72
2022/05/28 07:13:12;;;;;;;;;;;18.50;80.80;;;15.59;70.03;101039.13;6151645;23;20003;-72
2022/05/28 07:15:39;;;;;;;;;;;18.50;80.40;;;15.58;68.84;101048.44;6151719;23;19931;-73
2022/05/28 07:18:07;;;;;;;;;;;18.40;79.80;;;15.59;67.59;101050.97;6149350;23;19975;-72
2022/05/28 07:20:34;;;;;;;;;;;18.40;80.40;;;15.58;67.97;101054.75;6148544;23;19921;-72
2022/05/28 07:23:08;;;;;;;;;;;18.40;79.80;;;15.56;67.14;101039.56;6150178;23;19943;-73
2022/05/28 07:25:37;;;;;;;;;;;18.30;78.80;;;15.56;68.05;101043.13;6147706;23;20255;-72
2022/05/28 07:28:24;;;;;;;;;;;18.30;79.70;;;15.55;68.52;101046.09;6149816;23;19927;-71
2022/05/28 07:30:51;;;;;;;;;;;18.30;80.00;;;15.55;68.01;101055.16;6149541;23;20013;-72
2022/05/28 07:33:18;;;;;;;;;;;18.30;79.90;;;15.50;65.46;101056.81;6150723;23;19931;-73
2022/05/28 07:35:46;;;;;;;;;;;18.20;78.20;;;15.47;66.31;101051.75;6149627;23;20352;-74
2022/05/28 07:38:15;;;;;;;;;;;18.10;79.30;;;15.41;64.74;101054.25;6149836;23;19920;-74
2022/05/28 07:40:43;;;;;;;;;;;18.00;79.20;;;15.41;66.26;101058.91;6150687;23;19927;-74
2022/05/28 07:43:11;;;;;;;;;;;18.00;79.20;;;15.43;65.76;101054.06;6151707;23;20006;-74
2022/05/28 07:45:39;;;;;;;;;;;18.00;78.80;;;15.44;67.94;101042.03;6151460;23;19920;-74
2022/05/28 07:48:07;;;;;;;;;;;18.00;80.30;;;15.44;67.88;101048.38;6150881;23;19920;-74
2022/05/28 07:50:34;;;;;;;;;;;18.10;80.30;;;15.49;68.40;101047.75;6151421;23;20383;-73
2022/05/28 07:53:03;;;;;;;;;;;18.20;80.70;;;15.48;65.14;101046.06;6151221;23;20003;-73
2022/05/28 07:55:30;;;;;;;;;;;18.10;78.60;;;15.49;65.78;101046.91;6151786;23;20445;-73
2022/05/28 07:58:04;;;;;;;;;;;18.10;79.10;;;15.49;65.78;101042.25;6124061;23;20677;-73
2022/05/28 08:00:31;;;;;;;;;;;18.10;78.90;;;15.49;65.36;101047.75;6150765;23;19954;-73
2022/05/28 08:02:58;;;;;;;;;;;18.00;78.70;;;15.51;65.36;101047.53;6152072;23;19958;-73
2022/05/28 08:05:26;;;;;;;;;;;18.00;78.90;;;15.52;65.57;101050.09;6151799;23;19920;-73
2022/05/28 08:07:53;;;;;;;;;;;18.00;79.10;;;15.51;62.68;101040.16;6150682;23;20328;-73
2022/05/28 08:10:21;;;;;;;;;;;18.10;76.70;;;15.53;62.69;101046.28;6151680;23;19927;-73
2022/05/28 08:12:48;;;;;;;;;;;18.00;76.10;;;15.53;63.58;101042.69;6150435;23;19924;-73
2022/05/28 08:15:16;;;;;;;;;;;18.10;77.50;;;15.56;64.08;101045.03;6151403;23;20003;-72
2022/05/28 08:17:43;;;;;;;;;;;18.10;77.80;;;15.59;64.48;101040.00;6150587;23;19920;-73
2022/05/28 08:20:11;;;;;;;;;;;18.10;78.00;;;15.58;62.72;101041.03;6151479;23;19924;-73
2022/05/28 08:25:23;;;;;;;;;;;18.20;76.50;;;15.64;61.68;101033.88;6151715;23;19920;-68
2022/05/28 08:27:50;;;;;;;;;;;18.20;76.10;;;15.66;61.26;101044.66;6150019;23;19975;-69
2022/05/28 08:30:18;;;;;;;;;;;18.30;74.90;;;15.68;63.11;101039.81;6149393;23;19924;-70
2022/05/28 08:32:45;;;;;;;;;;;18.20;76.70;;;15.68;62.26;101045.28;6151380;23;20031;-70
2022/05/28 08:35:12;;;;;;;;;;;18.30;76.40;;;15.63;61.45;101051.38;6151515;23;20349;-74
2022/05/28 08:37:40;;;;;;;;;;;18.10;75.60;;;15.58;61.24;101049.25;6150617;23;20351;-76
2022/05/28 08:40:08;;;;;;;;;;;18.10;75.60;;;15.58;62.29;101035.53;6151669;23;19917;-70
2022/05/28 08:42:36;;;;;;;;;;;18.00;76.40;;;15.59;61.01;101045.47;6151779;23;19956;-70
2022/05/28 08:45:05;;;;;;;;;;;18.00;75.50;;;15.55;60.16;101041.44;6124882;23;20252;-70
2022/05/28 08:47:39;;;;;;;;;;;17.90;74.60;;;15.49;59.81;101042.25;6149993;23;20379;-69
2022/05/28 08:50:07;;;;;;;;;;;17.80;75.40;;;15.49;58.37;101041.41;6151394;23;20019;-69
2022/05/28 08:52:41;;;;;;;;;;;17.80;73.00;;;15.51;59.98;101037.41;6151556;23;19924;-70
2022/05/28 08:55:11;;;;;;;;;;;17.80;74.90;;;15.54;60.84;101042.50;6151434;23;20007;-70
2022/05/28 08:57:47;;;;;;;;;;;17.90;76.10;;;15.57;58.54;101025.63;6150642;23;19982;-70
2022/05/28 09:00:20;;;;;;;;;;;18.00;74.50;;;15.55;59.66;101022.22;6152179;23;19979;-84
2022/05/28 09:02:52;;;;;;;;;;;17.90;74.50;;;15.59;62.49;101029.03;6150796;23;19970;-84
2022/05/28 09:05:24;;;;;;;;;;;18.00;76.20;;;15.62;60.18;101022.28;6151338;23;19958;-84
2022/05/28 09:07:53;;;;;;;;;;;18.10;74.60;;;15.63;59.77;101027.56;6124192;23;19948;-84
2022/05/28 09:10:20;;;;;;;;;;;18.10;74.90;;;15.61;59.61;101026.06;6150260;23;20378;-84
2022/05/28 09:12:52;;;;;;;;;;;18.00;74.50;;;15.62;60.80;101031.34;6152932;23;19916;-84
2022/05/28 09:15:19;;;;;;;;;;;18.10;75.30;;;15.62;60.68;101022.28;6152740;23;19952;-81
2022/05/28 09:17:48;;;;;;;;;;;18.10;75.30;;;15.64;62.47;101031.13;6150325;23;20659;-83
2022/05/28 09:20:20;;;;;;;;;;;18.10;75.90;;;15.66;61.62;101033.69;6151628;23;19948;-84
2022/05/28 09:22:47;;;;;;;;;;;18.10;75.70;;;15.68;62.22;101026.94;6153106;23;20350;-84
2022/05/28 09:25:17;;;;;;;;;;;18.20;75.90;;;15.68;60.92;101026.94;6152676;23;19921;-84
2022/05/28 09:27:54;;;;;;;;;;;18.20;75.20;;;15.69;61.37;101028.63;6151888;23;19952;-84
2022/05/28 09:30:31;;;;;;;;;;;18.10;75.60;;;15.69;61.87;101033.25;6152852;23;19935;-85
2022/05/28 09:33:09;;;;;;;;;;;18.10;75.80;;;15.70;61.25;101026.72;6126433;23;20344;-84
2022/05/28 09:35:50;;;;;;;;;;;18.10;75.70;;;15.71;62.35;101031.19;6152230;23;19920;-83
2022/05/28 09:38:21;;;;;;;;;;;18.20;76.10;;;15.73;63.30;101012.59;6152119;23;19921;-83
2022/05/28 09:40:51;;;;;;;;;;;18.20;76.50;;;15.76;61.42;101017.69;6153135;23;19987;-84
2022/05/28 09:43:35;;;;;;;;;;;18.30;74.70;;;15.78;62.36;101018.34;6152304;23;19925;-83
2022/05/28 09:46:09;;;;;;;;;;;18.30;75.70;;;15.81;63.29;101016.03;6152403;23;19954;-82
2022/05/28 09:48:36;;;;;;;;;;;18.40;76.00;;;15.80;60.65;101008.84;6149188;23;19963;-83
2022/05/28 09:51:04;;;;;;;;;;;18.30;73.20;;;15.79;59.74;101017.28;6152658;23;19916;-81
2022/05/28 09:56:25;;;;;;;;;;;18.30;72.60;;;15.83;60.04;101018.56;6152528;23;20008;-81
2022/05/28 09:58:53;;;;;;;;;;;18.20;74.40;;;15.84;60.48;101017.53;6150839;23;19999;-81
2022/05/28 10:01:24;;;;;;;;;;;18.30;74.70;;;15.87;60.03;101019.84;6152098;23;20007;-82
2022/05/28 10:06:47;;;;;;;;;;;18.30;75.30;;;15.88;61.93;101016.06;6152345;23;20004;-82
2022/05/28 10:09:18;;;;;;;;;;;18.30;74.80;;;15.86;60.73;101012.69;6150801;23;19928;-80
2022/05/28 10:11:53;;;;;;;;;;;18.30;74.90;;;15.87;61.09;101008.84;6151753;23;19924;-81
2022/05/28 10:14:21;;;;;;;;;;;18.30;74.90;;;15.87;61.73;101014.34;6151818;23;19920;-80
2022/05/28 10:16:49;;;;;;;;;;;18.30;74.70;;;15.89;61.14;101012.25;6150844;23;20358;-81
2022/05/28 10:19:20;;;;;;;;;;;18.30;74.70;;;15.90;61.39;101008.47;6151411;23;20284;-80
2022/05/28 10:21:52;;;;;;;;;;;18.40;75.20;;;15.91;60.58;100993.66;6150228;23;19924;-81
2022/05/28 10:24:21;;;;;;;;;;;18.40;74.70;;;15.95;61.92;101002.31;6125716;23;19928;-81
2022/05/28 10:26:50;;;;;;;;;;;18.50;75.60;;;15.98;62.39;100993.69;6151443;23;20352;-81
2022/05/28 10:29:19;;;;;;;;;;;18.50;75.50;;;16.01;62.76;100994.13;6150462;23;19920;-80
2022/05/28 10:31:49;;;;;;;;;;;18.60;75.50;;;16.02;60.25;100995.78;6152780;23;20254;-81
2022/05/28 10:34:33;;;;;;;;;;;18.60;74.10;;;16.04;59.79;100998.34;6151025;23;19971;-82
2022/05/28 10:37:13;;;;;;;;;;;18.50;73.70;;;16.02;59.01;101009.53;6151258;23;19968;-82
2022/05/28 10:39:40;;;;;;;;;;;18.50;73.40;;;16.01;60.85;101007.84;6150793;23;20006;-81
2022/05/28 10:42:10;;;;;;;;;;;18.50;74.40;;;16.01;61.16;101013.34;6152154;23;19973;-81
2022/05/28 10:44:38;;;;;;;;;;;18.50;74.70;;;15.96;61.57;101021.34;6151103;23;20314;-82
2022/05/28 10:47:27;;;;;;;;;;;18.40;74.70;;;15.95;62.43;101019.63;6151794;23;19924;-81
2022/05/28 10:50:01;;;;;;;;;;;18.40;75.10;;;15.97;62.59;101013.94;6151541;23;19923;-81
2022/05/28 10:52:40;;;;;;;;;;;18.40;75.50;;;15.92;62.16;101013.75;6151944;23;20003;-82
2022/05/28 10:55:09;;;;;;;;;;;18.30;75.40;;;15.91;61.02;101014.78;6151323;23;19920;-81
2022/05/28 10:57:53;;;;;;;;;;;18.30;74.90;;;15.91;60.39;100998.31;6150332;23;19921;-83
2022/05/28 11:00:22;;;;;;;;;;;18.30;74.70;;;15.94;61.12;100998.75;6152011;23;20239;-81
2022/05/28 11:03:26;;;;;;;;;;;18.40;75.30;;;15.94;59.37;100990.50;6152419;23;19927;-82
2022/05/28 11:06:04;;;;;;;;;;;18.40;74.10;;;15.99;62.10;100988.00;6151529;23;19971;-82
2022/05/28 11:08:41;;;;;;;;;;;18.50;75.20;;;16.00;59.62;100992.41;6151272;23;20712;-82
2022/05/28 11:11:19;;;;;;;;;;;18.50;73.00;;;16.02;58.62;100984.81;6151765;23;20347;-82
2022/05/28 11:13:59;;;;;;;;;;;18.50;72.50;;;16.05;59.41;100977.22;6151189;23;20332;-82
2022/05/28 11:16:50;;;;;;;;;;;18.60;73.30;;;16.08;58.87;100988.63;6124656;23;20444;-80
2022/05/28 11:19:33;;;;;;;;;;;18.60;73.80;;;16.08;58.02;100994.13;6134830;23;19927;-82
2022/05/28 11:22:15;;;;;;;;;;;18.50;73.50;;;16.09;56.68;100983.97;6151720;23;19948;-83
2022/05/28 11:24:52;;;;;;;;;;;18.50;72.50;;;16.10;59.04;100974.69;6151989;23;20011;-82
2022/05/28 11:27:36;;;;;;;;;;;18.50;73.30;;;16.10;58.13;100977.44;6151275;23;19967;-82